Flight Track Log - Related Links

Times and Time Zones

All times are in EDT time to prevent confusion due to time zone crossing. See the EJA227 flight status page for this flight to view local times or setup timezone preferences in your user account.

Time Position Orientation Groundspeed Altitude Reporting Facility
EDT Latitude Longitude Course Direction KTS MPH feet Rate Location/Type
Wed 02:29:00 PM 39.9141 -76.2742 273° West  Level Estimated
Wed 02:30:00 PM 39.9193 -76.4219 273° West  Level Estimated
Wed 02:31:00 PM 39.9244 -76.5697 273° West  Level Estimated
Wed 02:32:00 PM 39.9292 -76.7174 273° West  Level Estimated
Wed 02:33:00 PM 39.9339 -76.8652 272° West  Level Estimated
Wed 02:34:00 PM 39.9384 -77.0130 272° West  Level Estimated
Wed 02:35:00 PM 39.9427 -77.1608 272° West  Level Estimated
Wed 02:36:00 PM 39.9471 -77.3214 272° West  Level Estimated
Wed 02:37:00 PM 39.9514 -77.4820 272° West  Level Estimated
Wed 02:38:00 PM 39.9554 -77.6426 272° West  Level Estimated
Wed 02:39:00 PM 39.9591 -77.8032 272° West  Level Estimated
Wed 02:40:00 PM 39.9625 -77.9558 278° West  Level Estimated
Wed 02:41:00 PM 39.9657 -78.1084 276° West  Level Estimated
Wed 02:42:00 PM 40.0120 -78.2487 293° West  Level FlightAware Approximate
Wed 02:43:00 PM 40.0580 -78.3892 293° West  Level FlightAware Approximate
Wed 02:44:00 PM 40.0604 -78.5421 278° West  Level Estimated
Wed 02:45:00 PM 40.0969 -78.6874 288° West  Level FlightAware Approximate
Wed 02:46:00 PM 40.0987 -78.8403 273° West  Level Estimated
Wed 02:47:00 PM 40.1157 -78.9917 278° West  Level FlightAware Approximate
Wed 02:48:00 PM 40.1171 -79.1447 272° West  Level Estimated
Wed 02:49:00 PM 40.1366 -79.3049 272° West  Level FlightAware Approximate
Wed 02:50:00 PM 40.1396 -79.4650 272° West  Level FlightAware Approximate
Wed 02:51:00 PM 40.1500 -79.6255 275° West  Level FlightAware Approximate
Wed 02:52:00 PM 40.1602 -79.7859 275° West  Level FlightAware Approximate
Wed 02:53:00 PM 40.1701 -79.9464 275° West  Level FlightAware Approximate
Wed 02:54:00 PM 40.1798 -80.1070 275° West  Level FlightAware Approximate
Wed 02:55:00 PM 40.1862 -80.2684 272° West  Level FlightAware Approximate
Wed 02:56:00 PM 40.1906 -80.4294 272° West  Level FlightAware Approximate
Wed 02:57:00 PM 40.1948 -80.5904 272° West  Level FlightAware Approximate
Wed 02:58:00 PM 40.1987 -80.7514 272° West  Level FlightAware Approximate
Wed 02:59:00 PM 40.2025 -80.9122 272° West  Level FlightAware Approximate
Wed 03:00:00 PM 40.2060 -81.0730 272° West  Level FlightAware Approximate
Wed 03:01:00 PM 40.2092 -81.2338 272° West  Level FlightAware Approximate
Wed 03:02:00 PM 40.2123 -81.3947 271° West  Level FlightAware Approximate
Wed 03:03:00 PM 40.1521 -81.5345 241° Southwest  Level FlightAware Approximate
Wed 03:04:00 PM 40.1499 -81.6950 274° West  Level Estimated
Wed 03:05:00 PM 40.1461 -81.8554 268° West  Level FlightAware Approximate
Wed 03:06:00 PM 40.1420 -82.0171 268° West  Level FlightAware Approximate
Wed 03:07:00 PM 40.1377 -82.1788 268° West  Level FlightAware Approximate
Wed 03:08:00 PM 40.1337 -82.3430 273° West  Level FlightAware Approximate
Wed 03:09:00 PM 40.1399 -82.5052 273° West  Level FlightAware Approximate
Wed 03:10:00 PM 40.1459 -82.6674 273° West  Level FlightAware Approximate
Wed 03:11:00 PM 40.1517 -82.8296 273° West  Level FlightAware Approximate
Wed 03:12:00 PM 40.1573 -82.9918 273° West  Level FlightAware Approximate
Wed 03:13:00 PM 40.1626 -83.1541 273° West  Level FlightAware Approximate
Wed 03:14:00 PM 40.1679 -83.3164 273° West  Level FlightAware Approximate
Wed 03:15:00 PM 40.1739 -83.4787 273° West  Level FlightAware Approximate
Wed 03:16:00 PM 40.1796 -83.6410 273° West  Level FlightAware Approximate
Wed 03:17:00 PM 40.1851 -83.8033 273° West  Level FlightAware Approximate
Wed 03:18:00 PM 40.1903 -83.9656 272° West  Level FlightAware Approximate
Wed 03:19:00 PM 40.1954 -84.1280 272° West  Level FlightAware Approximate
Wed 03:20:00 PM 40.2003 -84.2904 273° West  Level FlightAware Approximate
Wed 03:21:00 PM 40.2063 -84.4527 273° West  Level FlightAware Approximate
Wed 03:22:00 PM 40.2120 -84.6151 273° West  Level FlightAware Approximate
Wed 03:23:00 PM 40.2175 -84.7775 273° West  Level FlightAware Approximate
Wed 03:24:00 PM 40.2229 -84.9399 273° West  Level FlightAware Approximate
Wed 03:25:00 PM 40.2279 -85.1024 272° West  Level FlightAware Approximate
Wed 03:26:00 PM 40.2328 -85.2648 272° West  Level FlightAware Approximate
Wed 03:27:00 PM 40.2334 -85.4274 270° West  Level FlightAware Approximate
Wed 03:28:00 PM 40.2334 -85.5900 270° West  Level FlightAware Approximate
Wed 03:29:00 PM 40.2364 -85.7525 273° West  Level FlightAware Approximate
Wed 03:30:00 PM 40.2434 -85.9149 273° West  Level FlightAware Approximate
Wed 03:31:00 PM 40.2501 -86.0772 273° West  Level FlightAware Approximate
Wed 03:32:00 PM 40.2567 -86.2397 273° West  Level FlightAware Approximate
Wed 03:33:00 PM 40.2630 -86.4021 273° West  Level FlightAware Approximate
Wed 03:34:00 PM 40.2680 -86.5647 272° West  Level FlightAware Approximate
Wed 03:35:00 PM 40.2711 -86.7273 271° West  Level FlightAware Approximate
Wed 03:36:00 PM 40.2740 -86.8900 271° West  Level FlightAware Approximate
Wed 03:37:00 PM 40.2766 -87.0526 271° West  Level FlightAware Approximate
Wed 03:38:00 PM 40.2791 -87.2153 271° West  Level FlightAware Approximate
Wed 03:39:00 PM 40.2813 -87.3780 271° West  Level FlightAware Approximate
Wed 03:40:00 PM 40.2832 -87.5413 271° West  Level FlightAware Approximate
Wed 03:41:00 PM 40.2836 -87.7046 270° West  Level FlightAware Approximate
Wed 03:42:00 PM 40.2837 -87.8679 270° West  Level FlightAware Approximate
Wed 03:43:00 PM 40.2833 -88.1162 270° West  Level FlightAware Approximate
Wed 03:44:00 PM 40.2793 -88.3645 269° West  Level FlightAware Approximate
Wed 03:45:00 PM 40.2748 -88.6127 269° West  Level FlightAware Approximate
Wed 03:46:00 PM 40.2697 -88.8609 269° West  Level FlightAware Approximate
Wed 03:47:00 PM 40.2641 -89.1091 268° West  Level FlightAware Approximate
Wed 03:48:00 PM 40.2579 -89.3572 268° West  Level FlightAware Approximate
Wed 03:49:00 PM 40.2513 -89.6053 268° West  Level FlightAware Approximate
Wed 03:50:00 PM 40.2452 -89.8534 268° West  Level FlightAware Approximate
Wed 03:51:00 PM 40.2388 -90.1014 268° West  Level FlightAware Approximate
Wed 03:52:00 PM 40.2315 -90.3494 267° West  Level FlightAware Approximate
Wed 03:53:00 PM 40.2219 -90.5972 267° West  Level FlightAware Approximate
Wed 03:54:00 PM 40.2117 -90.8450 267° West  Level FlightAware Approximate
Wed 03:55:00 PM 40.1936 -91.0068 262° West  Level Estimated
Wed 03:56:00 PM 40.1752 -91.1685 262° West  Level Estimated
Wed 03:57:00 PM 40.1566 -91.3302 261° West  Level Estimated
Wed 03:58:00 PM 40.1378 -91.4917 261° West  Level Estimated
Wed 03:59:00 PM 40.1187 -91.6532 261° West  Level Estimated
Wed 04:00:00 PM 40.0995 -91.8146 261° West  Level Estimated
Wed 04:01:00 PM 40.0800 -91.9759 261° West  Level Estimated
Wed 04:02:00 PM 40.0602 -92.1370 261° West  Level Estimated
Wed 04:03:00 PM 40.0403 -92.2981 261° West  Level Estimated
Wed 04:04:00 PM 40.0201 -92.4592 261° West  Level Estimated
Wed 04:05:00 PM 39.9997 -92.6201 261° West  Level Estimated
Wed 04:06:00 PM 39.9791 -92.7809 261° West  Level Estimated
Wed 04:07:00 PM 39.9583 -92.9416 260° West  Level Estimated
Wed 04:08:00 PM 39.9373 -93.1022 260° West  Level Estimated
Wed 04:09:00 PM 39.9160 -93.2627 260° West  Level Estimated
Wed 04:10:00 PM 39.8944 -93.4239 260° West  Level Estimated
Wed 04:11:00 PM 39.8726 -93.5849 260° West  Level Estimated
Wed 04:12:00 PM 39.8505 -93.7458 260° West  Level Estimated
Wed 04:13:00 PM 39.8283 -93.9066 260° West  Level Estimated
Wed 04:14:00 PM 39.8058 -94.0673 260° West  Level Estimated
Wed 04:15:00 PM 39.7831 -94.2279 260° West  Level Estimated
Wed 04:16:00 PM 39.7602 -94.3884 260° West  Level Estimated
Wed 04:17:00 PM 39.7370 -94.5488 259° West  Level Estimated
Wed 04:18:00 PM 39.7136 -94.7091 259° West  Level Estimated
Wed 04:19:00 PM 39.6900 -94.8693 259° West  Level Estimated
Wed 04:20:00 PM 39.6663 -95.0292 259° West  Level Estimated
Wed 04:21:00 PM 39.6423 -95.1889 259° West  Level Estimated
Wed 04:22:00 PM 39.6180 -95.3486 259° West  Level Estimated
Wed 04:23:00 PM 39.5936 -95.5081 259° West  Level Estimated
Wed 04:24:00 PM 39.5690 -95.6675 259° West  Level Estimated
Wed 04:25:00 PM 39.5441 -95.8268 259° West  Level Estimated
Wed 04:26:00 PM 39.5190 -95.9860 259° West  Level Estimated
Wed 04:27:00 PM 39.4937 -96.1451 258° West  Level Estimated
Wed 04:28:00 PM 39.4682 -96.3041 258° West  Level Estimated
Wed 04:29:00 PM 39.4425 -96.4629 258° West  Level Estimated
Wed 04:30:00 PM 39.4165 -96.6217 258° West  Level Estimated
Wed 04:31:00 PM 39.3903 -96.7803 258° West  Level Estimated
Wed 04:32:00 PM 39.3639 -96.9388 258° West  Level Estimated
Wed 04:33:00 PM 39.3373 -97.0971 258° West  Level Estimated
Wed 04:34:00 PM 39.3105 -97.2554 258° West  Level Estimated
Wed 04:35:00 PM 39.2835 -97.4135 258° West  Level Estimated
Wed 04:36:00 PM 39.2563 -97.5715 257° West  Level Estimated
Wed 04:37:00 PM 39.2288 -97.7294 257° West  Level Estimated
Wed 04:38:00 PM 39.2011 -97.8872 257° West  Level Estimated
Wed 04:39:00 PM 39.1733 -98.0448 257° West  Level Estimated
Wed 04:40:00 PM 39.1452 -98.2023 257° West  Level Estimated
Wed 04:41:00 PM 39.1169 -98.3597 257° West  Level Estimated
Wed 04:42:00 PM 39.0884 -98.5169 257° West  Level Estimated
Wed 04:43:00 PM 39.0596 -98.6741 257° West  Level Estimated
Wed 04:44:00 PM 39.0307 -98.8311 257° West  Level Estimated
Wed 04:45:00 PM 39.0015 -98.9879 257° West  Level Estimated
Wed 04:46:00 PM 38.9722 -99.1447 257° West  Level Estimated
Wed 04:47:00 PM 38.9426 -99.3013 256° West  Level Estimated
Wed 04:48:00 PM 38.9128 -99.4578 256° West  Level Estimated
Wed 04:49:00 PM 38.8829 -99.6141 256° West  Level Estimated
Wed 04:50:00 PM 38.8527 -99.7703 256° West  Level Estimated
Wed 04:51:00 PM 38.8223 -99.9264 256° West  Level Estimated
Wed 04:52:00 PM 38.7917 -100.0824 256° West  Level Estimated
Wed 04:53:00 PM 38.7608 -100.2386 256° West  Level Estimated
Wed 04:54:00 PM 38.7297 -100.3946 256° West  Level Estimated
Wed 04:55:00 PM 38.6984 -100.5506 256° West  Level Estimated
Wed 04:56:00 PM 38.6669 -100.7064 256° West  Level Estimated
Wed 04:57:00 PM 38.6351 -100.8620 255° West  Level Estimated
Wed 04:58:00 PM 38.6032 -101.0175 255° West  Level Estimated
Wed 04:59:00 PM 38.5712 -101.1725 255° West  Level Estimated
Wed 05:00:00 PM 38.5389 -101.3273 255° West  Level Estimated
Wed 05:01:00 PM 38.5065 -101.4820 255° West  Level Estimated
Wed 05:02:00 PM 38.4737 -101.6368 255° West  Level Estimated
Wed 05:03:00 PM 38.4408 -101.7915 255° West  Level Estimated
Wed 05:04:00 PM 38.4077 -101.9460 255° West  Level Estimated
Wed 05:05:00 PM 38.3744 -102.1004 255° West  Level Estimated
Wed 05:06:00 PM 38.3408 -102.2547 255° West  Level Estimated
Wed 05:07:00 PM 38.3071 -102.4088 254° West  Level Estimated
Wed 05:08:00 PM 38.2732 -102.5628 254° West  Level Estimated
Wed 05:09:00 PM 38.2391 -102.7166 254° West  Level Estimated
Wed 05:10:00 PM 38.2047 -102.8703 254° West  Level Estimated
Wed 05:11:00 PM 38.1702 -103.0239 254° West  Level Estimated
Wed 05:12:00 PM 38.1355 -103.1773 254° West  Level Estimated
Wed 05:13:00 PM 38.1005 -103.3305 254° West  Level Estimated
Wed 05:14:00 PM 38.0654 -103.4836 254° West  Level Estimated
Wed 05:15:00 PM 38.0301 -103.6366 254° West  Level Estimated
Wed 05:16:00 PM 37.9945 -103.7894 254° West  Level Estimated
Wed 05:17:00 PM 37.9588 -103.9421 254° West  Level Estimated
Wed 05:18:00 PM 37.9229 -104.0946 253° West  Level Estimated
Wed 05:19:00 PM 37.8868 -104.2469 253° West  Level Estimated
Wed 05:20:00 PM 37.8504 -104.3991 253° West  Level Estimated
Wed 05:21:00 PM 37.8139 -104.5512 253° West  Level Estimated
Wed 05:22:00 PM 37.7772 -104.7031 253° West  Level Estimated
Wed 05:23:00 PM 37.7403 -104.8549 253° West  Level Estimated
Wed 05:24:00 PM 37.7032 -105.0065 253° West  Level Estimated
Wed 05:25:00 PM 37.6659 -105.1579 253° West  Level Estimated
Wed 05:26:00 PM 37.6285 -105.3092 253° West  Level Estimated
Wed 05:27:00 PM 37.5908 -105.4604 253° West  Level Estimated
Wed 05:28:00 PM 37.5529 -105.6114 252° West  Level Estimated
Wed 05:29:00 PM 37.5149 -105.7623 252° West  Level Estimated
Wed 05:30:00 PM 37.4766 -105.9129 252° West  Level Estimated
Wed 05:31:00 PM 37.4382 -106.0635 252° West  Level Estimated
Wed 05:32:00 PM 37.3995 -106.2139 252° West  Level Estimated
Wed 05:33:00 PM 37.4038 -106.3802 256° West  Level FlightAware Approximate
Wed 05:34:00 PM 37.3727 -106.5341 256° West  Level FlightAware Approximate
Wed 05:35:00 PM 37.3413 -106.6879 256° West  Level FlightAware Approximate
Wed 05:36:00 PM 37.3098 -106.8416 256° West  Level FlightAware Approximate
Wed 05:37:00 PM 37.2781 -106.9951 255° West  Level FlightAware Approximate
Wed 05:38:00 PM 37.2425 -107.1471 253° West  Level FlightAware Approximate
Wed 05:39:00 PM 37.2045 -107.2989 253° West  Level FlightAware Approximate
Wed 05:40:00 PM 37.1745 -107.4532 257° West  Level FlightAware Approximate
Wed 05:41:00 PM 37.1440 -107.6074 253° West  Level FlightAware Approximate
Wed 05:42:00 PM 37.1062 -107.7590 253° West  Level FlightAware Approximate
Wed 05:43:00 PM 37.0699 -107.9110 255° West  Level FlightAware Approximate
Wed 05:44:00 PM 37.0359 -108.0639 255° West  Level FlightAware Approximate
Wed 05:45:00 PM 37.0018 -108.2167 254° West  Level FlightAware Approximate
Wed 05:46:00 PM 36.9675 -108.3693 254° West  Level FlightAware Approximate
Wed 05:47:00 PM 36.9330 -108.5217 254° West  Level FlightAware Approximate
Wed 05:48:00 PM 36.8984 -108.6741 255° West  Level FlightAware Approximate
Wed 05:49:00 PM 36.8652 -108.8269 255° West  Level FlightAware Approximate
Wed 05:50:00 PM 36.8319 -108.9796 255° West  Level FlightAware Approximate
Wed 05:51:00 PM 36.7868 -109.1270 249° West  Level Estimated
Wed 05:52:00 PM 36.7414 -109.2743 249° West  Level Estimated
Wed 05:53:00 PM 36.6959 -109.4214 249° West  Level Estimated
Wed 05:54:00 PM 36.6502 -109.5684 249° West  Level Estimated
Wed 05:55:00 PM 36.6043 -109.7151 249° West  Level Estimated
Wed 05:56:00 PM 36.5582 -109.8619 249° West  Level Estimated
Wed 05:57:00 PM 36.5119 -110.0084 249° West  Level Estimated
Wed 05:58:00 PM 36.4655 -110.1547 248° West  Level Estimated
Wed 05:59:00 PM 36.4187 -110.3014 248° West  Level Estimated
Wed 06:00:00 PM 36.3717 -110.4479 248° West  Level Estimated
Wed 06:01:00 PM 36.3246 -110.5942 248° West  Level Estimated
Wed 06:02:00 PM 36.2772 -110.7403 248° West  Level Estimated
Wed 06:03:00 PM 36.2297 -110.8863 248° West  Level Estimated
Wed 06:04:00 PM 36.1820 -111.0321 248° West  Level Estimated
Wed 06:05:00 PM 36.1374 -111.1789 249° West  Level FlightAware Approximate
Wed 06:06:00 PM 36.0925 -111.3257 249° West  Level FlightAware Approximate
Wed 06:07:00 PM 36.0473 -111.4728 249° West  Level FlightAware Approximate
Wed 06:08:00 PM 36.0019 -111.6198 249° West  Level FlightAware Approximate
Wed 06:09:00 PM 35.9586 -111.7694 255° West  Level FlightAware Approximate
Wed 06:10:00 PM 35.9244 -111.9208 254° West  Level FlightAware Approximate
Wed 06:11:00 PM 35.8901 -112.0721 254° West  Level FlightAware Approximate
Wed 06:12:00 PM 35.8556 -112.2233 254° West  Level FlightAware Approximate
Wed 06:13:00 PM 35.8210 -112.3743 254° West  Level FlightAware Approximate
Wed 06:14:00 PM 35.7861 -112.5252 254° West  Level FlightAware Approximate
Wed 06:15:00 PM 35.7510 -112.6760 254° West  Level FlightAware Approximate
Wed 06:16:00 PM 35.7158 -112.8266 254° West  Level FlightAware Approximate
Wed 06:17:00 PM 35.6803 -112.9771 254° West  Level FlightAware Approximate
Wed 06:18:00 PM 35.6447 -113.1274 254° West  Level FlightAware Approximate
Wed 06:19:00 PM 35.6089 -113.2777 254° West  Level FlightAware Approximate
Wed 06:20:00 PM 35.5729 -113.4277 254° West  Level FlightAware Approximate
Wed 06:21:00 PM 35.5367 -113.5777 254° West  Level FlightAware Approximate
Wed 06:22:00 PM 35.5004 -113.7275 253° West  Level FlightAware Approximate
Wed 06:23:00 PM 35.4638 -113.8772 253° West  Level FlightAware Approximate
Wed 06:24:00 PM 35.4271 -114.0267 253° West  Level FlightAware Approximate
Wed 06:25:00 PM 35.3901 -114.1762 253° West  Level FlightAware Approximate
Wed 06:26:00 PM 35.3530 -114.3254 253° West  Level FlightAware Approximate
Wed 06:27:00 PM 35.3158 -114.4746 253° West  Level FlightAware Approximate
Wed 06:28:00 PM 35.2783 -114.6236 253° West  Level FlightAware Approximate
Wed 06:29:00 PM 35.2406 -114.7724 253° West  Level FlightAware Approximate
Wed 06:30:00 PM 35.2001 -114.9200 249° West  Level FlightAware Approximate
Wed 06:31:00 PM 35.1546 -115.0654 249° West  Level FlightAware Approximate
Wed 06:32:00 PM 35.1136 -115.2126 253° West  Level FlightAware Approximate
Wed 06:33:00 PM 35.0765 -115.3614 253° West  Level FlightAware Approximate
Wed 06:34:00 PM 35.0392 -115.5100 253° West  Level FlightAware Approximate
Wed 06:35:00 PM 35.0022 -115.6586 253° West  Level FlightAware Approximate
Wed 06:36:00 PM 34.9650 -115.8072 253° West  Level FlightAware Approximate
Wed 06:37:00 PM 34.9278 -115.9556 253° West  Level FlightAware Approximate
Wed 06:38:00 PM 34.8907 -116.1040 253° West  Level FlightAware Approximate
Wed 06:39:00 PM 34.8468 -116.2495 249° West  Level FlightAware Approximate
Wed 06:40:00 PM 34.8010 -116.3942 249° West  Level FlightAware Approximate
Wed 06:41:00 PM 34.7307 -116.5203 228° Southwest  Level FlightAware Approximate
Wed 06:42:00 PM 34.6488 -116.6378 224° Southwest  Level FlightAware Approximate
Wed 06:43:00 PM 34.5576 -116.7457 224° Southwest  Level FlightAware Approximate
Wed 06:44:00 PM 34.4623 -116.8399 231° Southwest  Level FlightAware Approximate
Wed 06:45:00 PM 34.3815 -116.9522 225° Southwest  Level FlightAware Approximate
Wed 06:46:00 PM 34.2921 -117.0618 231° Southwest  Level FlightAware Approximate
Wed 06:47:00 PM 34.1809 -117.1138 189° South  Level FlightAware Approximate
Wed 06:48:00 PM 34.0550 -117.1333 180° South  Level FlightAware Approximate
Wed 06:49:00 PM 33.9296 -117.1500 180° South  Level FlightAware Approximate
Wed 06:50:00 PM 33.8035 -117.1667 180° South  Level FlightAware Approximate
Wed 06:51:00 PM 33.7667 -117.2860 270° West  Level FlightAware Approximate
Wed 06:52:00 PM 33.7667 -117.4391 270° West  Level FlightAware Approximate
Wed 06:53:00 PM 33.7667 -117.5922 270° West  Level FlightAware Approximate
Wed 06:54:00 PM 33.7667 -117.7452 270° West  Level FlightAware Approximate
Wed 06:55:00 PM 33.7667 -117.8983 270° West  Level FlightAware Approximate
Wed 06:56:00 PM 33.6757 -117.8682 90° East  Level Estimated
Wed 06:57:00 PM 33.6757 -117.8682 132° Southeast  Level Estimated
Wed 06:58:00 PM 33.6757 -117.8682 132° Southeast  Level Estimated
Wed 06:59:00 PM 33.6757 -117.8682 132° Southeast  Level Estimated
Wed 07:00:00 PM 33.6757 -117.8682 132° Southeast  Level Estimated
Wed 07:01:00 PM 33.6757 -117.8682 132° Southeast  Level Estimated
Wed 07:02:00 PM 33.6757 -117.8682 132° Southeast  Level Estimated
Wed 07:03:00 PM 33.6757 -117.8682 132° Southeast  Level Estimated
Wed 07:04:00 PM 33.6757 -117.8682 132° Southeast  Level Estimated
Wed 07:05:00 PM 33.6757 -117.8682 132° Southeast  Level Estimated
Wed 07:05:25 PM 34.0658 -117.2075 132° Southeast 355 409 12,000  Level Los Angeles Center
Wed 07:06:00 PM 33.6757 -117.8682 132° Southeast  Level Estimated
Wed 07:06:27 PM 33.9797 -117.2781 214° Southwest 350 403 10,700  Level Los Angeles Center
Wed 07:07:00 PM 33.6757 -117.8682 132° Southeast  Level Estimated
Wed 07:07:29 PM 33.9258 -117.3589 231° Southwest 311 358 10,000  Level Los Angeles Center
Wed 07:08:00 PM 33.6757 -117.8682 132° Southeast  Level Estimated
Wed 07:08:31 PM 33.8775 -117.4347 233° Southwest 291 335 9,000  Level Los Angeles Center
Wed 07:09:00 PM 33.6757 -117.8682 132° Southeast  Level Estimated
Wed 07:09:33 PM 33.8336 -117.5042 233° Southwest 269 310 8,000  Level Los Angeles Center
Wed 07:10:00 PM 33.6757 -117.8682 132° Southeast  Level Estimated
Wed 07:10:35 PM 33.7972 -117.5608 232° Southwest 233 268 7,200  Level Los Angeles Center
Wed 07:11:36 PM 33.8000 -117.6333 273° West 221 254 6,500 -1,323 Descending Southern California TRACON
Wed 07:12:42 PM 33.8167 -117.7167 284° West 219 252 4,400 -1,686 Descending Southern California TRACON
Wed 07:13:37 PM 33.8333 -117.7667 292° West 208 239 3,100 -991 Descending Southern California TRACON
Wed 07:14:37 PM 33.7833 -117.8000 209° Southwest 194 223 2,500 -850 Descending Southern California TRACON
Wed 07:15:37 PM 33.7333 -117.8333 209° Southwest 179 206 1,400 -950 Descending Southern California TRACON
Wed 07:16:37 PM 33.7000 -117.8500 203° Southwest 143 165 600 -800 Descending Southern California TRACON
Wed 07:19:00 PM 33.6757 -117.8682 132° Southeast  Level Estimated

Login

Don't have an account? Register now (free) for customized features, flight alerts, and more!